Blankenberge, Belgium
Current Conditions -  °F | °C
As of 6:20 PM on Thursday 18 Dec 2014 (Local Time) from EBOS Reporting Station
Broken Clouds Broken Clouds  
Wind Chill: 54°   Ceiling: 1000
Heat Index: 54°   Visibility: 6mi
Dew Point: 52°   Wind: 24mph
Humidity: 94%   Direction: 240°WSW
Pressure: 29.88"   Gusts: 37mph
Location:  51.31°N, 3.13°E
Report Text: EBOS 181720Z 24021G32KT 9999 FEW009 BKN010 12/11 Q1012 TEMPO BKN008
Loading
Personal Weather Stations






























Interactive Weather Map New forecast layout! Learn more

10-Day Weather Forecast

Advertisements
Track Severe Weather on mobile